Time;durP1;ratioP1;P1;durP2;ratioP2;P2;SDS_P1;SDS_P2;PMS_P1;PMS_P2;Temp;Humidity;BMP_temperature;BMP_pressure;BME280_temperature;BME280_humidity;BME280_pressure;Samples;Min_cycle;Max_cycle;Signal;HPM_P1;HPM_P2
2022/01/09 00:00:37;;;;;;;21.60;16.60;;;-1.20;93.00;;;;;;6275289;28;20972;-63
2022/01/09 00:03:41;;;;;;;18.50;16.50;;;-1.20;93.10;;;;;;6274911;28;20481;-62
2022/01/09 00:06:44;;;;;;;18.50;15.17;;;-1.20;92.90;;;;;;6275026;28;20477;-62
2022/01/09 00:09:48;;;;;;;19.90;14.00;;;-1.30;93.00;;;;;;6274262;28;20478;-62
2022/01/09 00:12:52;;;;;;;20.97;15.53;;;-1.30;93.10;;;;;;6274866;28;20876;-63
2022/01/09 00:15:55;;;;;;;19.27;14.63;;;-1.30;93.10;;;;;;6275277;28;20477;-62
2022/01/09 00:18:58;;;;;;;19.87;15.40;;;-1.40;93.10;;;;;;6276146;28;20470;-62
2022/01/09 00:22:01;;;;;;;21.20;14.73;;;-1.40;93.50;;;;;;6276414;28;20976;-63
2022/01/09 00:25:07;;;;;;;18.47;15.17;;;-1.40;93.40;;;;;;6270365;28;20799;-63
2022/01/09 00:28:10;;;;;;;19.20;16.93;;;-1.40;93.50;;;;;;6254810;28;20442;-63
2022/01/09 00:31:13;;;;;;;24.20;19.57;;;-1.40;93.20;;;;;;6271433;28;20976;-63
2022/01/09 00:34:16;;;;;;;35.20;21.60;;;-1.50;93.40;;;;;;6266125;28;20448;-63
2022/01/09 00:37:19;;;;;;;22.93;18.17;;;-1.40;93.30;;;;;;6253618;28;20455;-62
2022/01/09 00:40:24;;;;;;;21.13;16.13;;;-1.30;93.50;;;;;;6273052;28;20489;-62
2022/01/09 00:43:27;;;;;;;24.47;17.33;;;-1.40;93.30;;;;;;6270484;28;20462;-63
2022/01/09 00:46:33;;;;;;;18.77;16.07;;;-1.30;93.20;;;;;;6261735;28;20470;-62
2022/01/09 00:49:36;;;;;;;20.20;16.00;;;-1.40;93.10;;;;;;6267735;28;20485;-63
2022/01/09 00:52:40;;;;;;;22.70;15.87;;;-1.30;93.10;;;;;;6258264;28;20463;-62
2022/01/09 00:55:44;;;;;;;17.97;14.40;;;-1.30;93.00;;;;;;6251194;28;20977;-62
2022/01/09 00:58:47;;;;;;;19.37;13.40;;;-1.20;93.10;;;;;;6253478;28;20477;-63
2022/01/09 01:01:50;;;;;;;20.43;15.03;;;-1.20;92.90;;;;;;6252628;28;21058;-63
2022/01/09 01:04:54;;;;;;;20.37;13.90;;;-1.20;92.80;;;;;;6264570;28;20477;-63
2022/01/09 01:07:57;;;;;;;18.50;13.73;;;-1.20;92.70;;;;;;6251630;28;20467;-62
2022/01/09 01:11:02;;;;;;;17.27;11.83;;;-1.30;92.80;;;;;;6264275;28;20473;-62
2022/01/09 01:14:05;;;;;;;18.70;13.27;;;-1.30;93.20;;;;;;6250166;28;20467;-62
2022/01/09 01:17:09;;;;;;;19.83;13.90;;;-1.20;93.40;;;;;;6257309;28;20463;-62
2022/01/09 01:20:13;;;;;;;14.87;12.47;;;-1.20;93.60;;;;;;6248851;28;21021;-62
2022/01/09 01:23:16;;;;;;;16.33;13.33;;;-1.20;93.60;;;;;;6283239;28;20465;-62
2022/01/09 01:26:21;;;;;;;17.97;12.93;;;-1.30;93.40;;;;;;6254508;28;20540;-62
2022/01/09 01:29:24;;;;;;;16.10;12.60;;;-1.30;93.70;;;;;;6255458;28;20470;-62
2022/01/09 01:32:27;;;;;;;18.23;14.50;;;-1.10;93.90;;;;;;6249840;28;20957;-62
2022/01/09 01:35:30;;;;;;;13.87;12.27;;;-1.00;93.70;;;;;;6259357;28;20553;-62
2022/01/09 01:38:34;;;;;;;17.73;12.57;;;-1.00;93.60;;;;;;6254432;28;20799;-62
2022/01/09 01:41:39;;;;;;;14.60;12.77;;;-0.90;93.30;;;;;;6259044;28;20474;-62
2022/01/09 01:44:44;;;;;;;17.93;12.40;;;-0.90;93.20;;;;;;6277045;28;20476;-63
2022/01/09 01:47:48;;;;;;;15.40;12.50;;;-0.90;93.10;;;;;;6261202;28;20465;-63
2022/01/09 01:50:51;;;;;;;18.80;12.00;;;-0.80;93.10;;;;;;6276391;28;20469;-62
2022/01/09 01:53:56;;;;;;;13.37;11.97;;;-0.70;93.20;;;;;;6275334;28;20477;-63
2022/01/09 01:57:00;;;;;;;19.93;11.57;;;-0.80;93.10;;;;;;6263176;28;20485;-63
2022/01/09 02:00:04;;;;;;;14.63;11.97;;;-0.80;93.10;;;;;;6255380;28;20786;-63
2022/01/09 02:03:09;;;;;;;15.90;11.10;;;-0.80;93.20;;;;;;6254146;28;20470;-64
2022/01/09 02:06:14;;;;;;;18.97;12.17;;;-0.70;93.30;;;;;;6274837;28;20543;-63
2022/01/09 02:09:17;;;;;;;14.47;12.67;;;-0.60;93.40;;;;;;6273142;28;20949;-63
2022/01/09 02:12:22;;;;;;;14.33;12.80;;;-0.70;93.30;;;;;;6274369;28;20946;-63
2022/01/09 02:15:32;;;;;;;14.03;12.07;;;-0.70;92.90;;;;;;6274553;28;20482;-63
2022/01/09 02:18:35;;;;;;;19.17;13.20;;;-0.70;93.10;;;;;;6275617;28;20848;-63
2022/01/09 02:21:43;;;;;;;17.33;13.60;;;-0.80;93.70;;;;;;6275542;28;21005;-63
2022/01/09 02:24:46;;;;;;;17.47;12.50;;;-0.80;93.70;;;;;;6276425;28;20466;-62
2022/01/09 02:27:49;;;;;;;14.70;12.07;;;-0.80;93.80;;;;;;6275697;28;20523;-63
2022/01/09 02:30:52;;;;;;;15.03;13.43;;;-0.90;93.90;;;;;;6269687;28;20482;-63
2022/01/09 02:33:55;;;;;;;17.13;13.30;;;-0.90;94.10;;;;;;6273073;28;20466;-63
2022/01/09 02:37:00;;;;;;;15.53;13.27;;;-0.90;94.20;;;;;;6274147;28;20462;-62
2022/01/09 02:40:04;;;;;;;21.40;13.20;;;-0.90;94.10;;;;;;6266084;28;20482;-64
2022/01/09 02:43:07;;;;;;;15.73;12.80;;;-1.00;94.10;;;;;;6276070;28;20476;-62
2022/01/09 02:46:16;;;;;;;14.53;12.57;;;-0.90;94.40;;;;;;6276822;28;20431;-63
2022/01/09 02:49:19;;;;;;;20.73;12.80;;;-1.00;94.20;;;;;;6276315;28;20459;-63
2022/01/09 02:52:31;;;;;;;14.97;12.20;;;-1.00;94.10;;;;;;6276408;28;20894;-63
2022/01/09 02:55:34;;;;;;;15.13;11.20;;;-1.00;94.00;;;;;;6274829;28;20492;-63
2022/01/09 02:58:38;;;;;;;17.77;11.53;;;-1.10;94.00;;;;;;6273678;28;20478;-63
2022/01/09 03:01:41;;;;;;;19.07;13.17;;;-1.20;94.20;;;;;;6275686;28;20466;-63
2022/01/09 03:04:44;;;;;;;15.23;11.87;;;-1.30;94.70;;;;;;6272986;28;20536;-63
2022/01/09 03:07:49;;;;;;;18.73;12.47;;;-1.30;94.80;;;;;;6270574;28;20813;-63
2022/01/09 03:10:52;;;;;;;12.93;11.60;;;-1.20;94.80;;;;;;6272167;28;20969;-63
2022/01/09 03:13:55;;;;;;;15.57;13.07;;;-1.10;94.80;;;;;;6272782;28;20470;-63
2022/01/09 03:16:58;;;;;;;20.87;12.30;;;-1.10;94.70;;;;;;6273052;28;20973;-63
2022/01/09 03:20:03;;;;;;;15.33;11.80;;;-1.10;94.60;;;;;;6273405;28;20557;-64
2022/01/09 03:23:08;;;;;;;17.13;12.83;;;-1.10;94.60;;;;;;6276540;28;20474;-63
2022/01/09 03:26:11;;;;;;;15.20;12.57;;;-1.00;94.90;;;;;;6275677;28;20965;-63
2022/01/09 03:29:14;;;;;;;19.90;10.60;;;-1.00;94.50;;;;;;6275963;28;20470;-63
2022/01/09 03:32:17;;;;;;;16.90;11.47;;;-1.00;94.50;;;;;;6275707;28;20466;-63
2022/01/09 03:35:23;;;;;;;13.33;11.43;;;-1.00;94.50;;;;;;6275880;28;20481;-63
2022/01/09 03:38:28;;;;;;;11.83;10.60;;;-1.10;94.40;;;;;;6275787;28;20470;-63
2022/01/09 03:41:31;;;;;;;14.00;10.87;;;-1.10;94.60;;;;;;6271175;28;20478;-63
2022/01/09 03:44:34;;;;;;;15.70;11.17;;;-1.00;94.60;;;;;;6274840;28;20498;-63
2022/01/09 03:47:38;;;;;;;14.50;11.30;;;-1.10;94.60;;;;;;6275527;28;20482;-63
2022/01/09 03:50:42;;;;;;;12.53;9.70;;;-1.10;94.70;;;;;;6275732;28;20466;-63
2022/01/09 03:53:47;;;;;;;14.37;10.97;;;-1.10;94.90;;;;;;6275214;28;21063;-63
2022/01/09 03:56:50;;;;;;;13.60;10.70;;;-1.00;95.10;;;;;;6275622;28;20478;-64
2022/01/09 03:59:53;;;;;;;11.53;10.37;;;-1.00;95.10;;;;;;6275269;28;21015;-63
2022/01/09 04:02:56;;;;;;;12.70;10.80;;;-1.00;94.80;;;;;;6275504;28;20474;-63
2022/01/09 04:06:01;;;;;;;14.97;11.30;;;-1.00;94.90;;;;;;6275052;28;20477;-63
2022/01/09 04:09:17;;;;;;;13.00;9.90;;;-0.90;95.10;;;;;;6275133;28;20474;-63
2022/01/09 04:12:31;;;;;;;19.37;12.43;;;-0.90;94.90;;;;;;6275509;28;20806;-63
2022/01/09 04:15:35;;;;;;;16.37;11.20;;;-0.90;94.70;;;;;;6275124;28;20484;-63
2022/01/09 04:18:38;;;;;;;17.53;11.97;;;-0.90;94.70;;;;;;6275122;28;20481;-63
2022/01/09 04:21:42;;;;;;;14.80;10.93;;;-0.90;94.70;;;;;;6274949;28;20478;-63
2022/01/09 04:24:46;;;;;;;11.47;10.27;;;-0.90;94.80;;;;;;6275443;28;20984;-63
2022/01/09 04:27:51;;;;;;;13.23;10.53;;;-0.90;94.70;;;;;;6274634;28;20481;-63
2022/01/09 04:30:54;;;;;;;10.77;8.90;;;-0.90;94.80;;;;;;6275283;28;20485;-63
2022/01/09 04:33:57;;;;;;;10.70;9.60;;;-0.90;94.70;;;;;;6274906;28;20980;-63
2022/01/09 04:37:01;;;;;;;13.17;9.50;;;-0.90;94.70;;;;;;6274973;28;20485;-63
2022/01/09 04:40:09;;;;;;;13.03;9.60;;;-0.90;94.80;;;;;;6274712;28;20481;-63
2022/01/09 04:43:15;;;;;;;13.00;10.10;;;-0.80;94.80;;;;;;6274758;28;20462;-63
2022/01/09 04:46:24;;;;;;;10.43;8.73;;;-0.90;94.90;;;;;;6275221;28;20587;-63
2022/01/09 04:49:35;;;;;;;13.50;9.43;;;-0.90;94.90;;;;;;6274861;28;20473;-63
2022/01/09 04:52:39;;;;;;;13.53;10.30;;;-0.90;94.90;;;;;;6274838;28;20840;-63
2022/01/09 04:55:48;;;;;;;14.80;10.40;;;-0.90;94.90;;;;;;6275279;28;20470;-63
2022/01/09 04:58:51;;;;;;;10.80;9.73;;;-0.90;94.90;;;;;;6279955;28;20469;-63
2022/01/09 05:01:54;;;;;;;11.37;9.30;;;-0.90;95.00;;;;;;6279559;28;20472;-63
2022/01/09 05:04:58;;;;;;;9.93;8.90;;;-0.90;94.90;;;;;;6279765;28;20477;-63
2022/01/09 05:08:01;;;;;;;10.47;8.80;;;-0.90;94.90;;;;;;6279950;28;20511;-63
2022/01/09 05:11:05;;;;;;;16.53;12.40;;;-0.90;94.90;;;;;;6279293;28;20482;-63
2022/01/09 05:14:08;;;;;;;15.83;11.10;;;-0.80;94.90;;;;;;6279815;28;20470;-63
2022/01/09 05:17:11;;;;;;;22.13;13.90;;;-0.80;94.80;;;;;;6279373;28;20481;-63
2022/01/09 05:20:15;;;;;;;14.90;12.80;;;-0.80;94.80;;;;;;6279401;28;20497;-63
2022/01/09 05:23:18;;;;;;;14.33;11.83;;;-0.80;94.90;;;;;;6279465;28;20470;-63
2022/01/09 05:26:22;;;;;;;18.50;11.80;;;-0.70;94.80;;;;;;6278672;28;20474;-63
2022/01/09 05:29:25;;;;;;;15.23;10.77;;;-0.70;94.70;;;;;;6278949;28;20482;-63
2022/01/09 05:32:29;;;;;;;14.40;10.30;;;-0.70;94.70;;;;;;6279004;28;20466;-63
2022/01/09 05:35:32;;;;;;;13.70;9.77;;;-0.70;94.70;;;;;;6279022;28;20815;-63
2022/01/09 05:38:35;;;;;;;13.73;9.30;;;-0.70;94.60;;;;;;6279045;28;20985;-63
2022/01/09 05:41:41;;;;;;;14.33;10.10;;;-0.70;94.50;;;;;;6279122;28;20487;-63
2022/01/09 05:44:44;;;;;;;13.33;9.07;;;-0.70;94.60;;;;;;6278714;28;20477;-63
2022/01/09 05:47:48;;;;;;;12.77;9.40;;;-0.70;94.60;;;;;;6274184;28;20841;-63
2022/01/09 05:50:51;;;;;;;11.00;9.20;;;-0.70;94.60;;;;;;6278846;28;20493;-63
2022/01/09 05:53:54;;;;;;;10.90;9.17;;;-0.70;94.60;;;;;;6278662;28;20474;-62
2022/01/09 05:56:58;;;;;;;12.60;11.30;;;-0.60;94.70;;;;;;6278508;28;20469;-63
2022/01/09 06:00:02;;;;;;;12.20;11.10;;;-0.70;94.50;;;;;;6277976;28;20508;-64
2022/01/09 06:03:05;;;;;;;15.17;10.97;;;-0.60;94.50;;;;;;6275563;28;20478;-63
2022/01/09 06:06:08;;;;;;;11.00;8.47;;;-0.70;94.40;;;;;;6274284;28;20474;-63
2022/01/09 06:09:11;;;;;;;11.30;9.40;;;-0.70;94.40;;;;;;6277510;28;20485;-63
2022/01/09 06:12:16;;;;;;;11.27;8.87;;;-0.60;94.70;;;;;;6277605;28;20465;-64
2022/01/09 06:15:19;;;;;;;12.53;8.80;;;-0.60;94.70;;;;;;6278465;28;20535;-63
2022/01/09 06:18:22;;;;;;;12.07;9.60;;;-0.70;94.80;;;;;;6278163;28;20462;-63
2022/01/09 06:21:27;;;;;;;10.43;9.33;;;-0.60;94.90;;;;;;6277683;28;20809;-63
2022/01/09 06:24:30;;;;;;;14.77;8.87;;;-0.60;95.00;;;;;;6277856;28;20478;-63
2022/01/09 06:27:34;;;;;;;10.20;8.83;;;-0.60;94.90;;;;;;6277823;28;20466;-63
2022/01/09 06:30:38;;;;;;;9.73;8.73;;;-0.60;95.10;;;;;;6277452;28;20470;-63
2022/01/09 06:33:41;;;;;;;14.33;8.40;;;-0.60;95.30;;;;;;6277498;28;20481;-63
2022/01/09 06:36:44;;;;;;;12.93;8.87;;;-0.50;95.30;;;;;;6277651;28;20798;-63
2022/01/09 06:39:47;;;;;;;14.17;9.50;;;-0.50;95.30;;;;;;6277299;28;20795;-63
2022/01/09 06:42:51;;;;;;;13.60;10.57;;;-0.40;95.20;;;;;;6277062;28;20474;-63
2022/01/09 06:45:55;;;;;;;12.63;9.33;;;-0.30;95.10;;;;;;6277465;28;20926;-63
2022/01/09 06:48:58;;;;;;;10.77;8.70;;;-0.30;95.00;;;;;;6276940;28;20481;-63
2022/01/09 06:52:01;;;;;;;15.67;12.30;;;-0.30;95.10;;;;;;6272356;28;20541;-63
2022/01/09 06:55:05;;;;;;;12.10;10.13;;;-0.30;95.20;;;;;;6276658;28;20482;-63
2022/01/09 06:58:10;;;;;;;10.73;8.63;;;-0.10;95.20;;;;;;6277430;28;20457;-63
2022/01/09 07:01:13;;;;;;;19.53;10.20;;;-0.10;95.00;;;;;;6277116;28;20802;-63
2022/01/09 07:04:16;;;;;;;13.93;9.47;;;0.00;94.90;;;;;;6276777;28;20474;-63
2022/01/09 07:07:19;;;;;;;10.30;8.87;;;0.10;94.60;;;;;;6277522;28;20442;-63
2022/01/09 07:10:22;;;;;;;11.30;8.93;;;0.10;94.50;;;;;;6276444;28;20490;-63
2022/01/09 07:13:27;;;;;;;11.83;8.90;;;0.20;94.40;;;;;;6276673;28;20757;-63
2022/01/09 07:16:30;;;;;;;15.80;9.67;;;0.30;94.20;;;;;;6276815;28;20466;-63
2022/01/09 07:19:33;;;;;;;16.00;10.70;;;0.30;94.10;;;;;;6275211;28;20537;-63
2022/01/09 07:22:36;;;;;;;14.70;9.87;;;0.30;94.00;;;;;;6276864;28;20466;-63
2022/01/09 07:25:40;;;;;;;12.17;9.00;;;0.40;94.10;;;;;;6276750;28;20469;-63
2022/01/09 07:28:44;;;;;;;13.53;10.00;;;0.40;93.90;;;;;;6276897;28;20489;-63
2022/01/09 07:31:47;;;;;;;10.40;9.50;;;0.40;93.80;;;;;;6276228;28;20795;-64
2022/01/09 07:34:50;;;;;;;11.17;9.10;;;0.40;93.80;;;;;;6276392;28;20466;-64
2022/01/09 07:37:54;;;;;;;13.80;10.40;;;0.40;93.80;;;;;;6276503;28;20474;-64
2022/01/09 07:40:57;;;;;;;16.37;13.17;;;0.20;93.90;;;;;;6275591;28;20980;-64
2022/01/09 07:44:02;;;;;;;16.33;12.77;;;0.10;94.10;;;;;;6276178;28;20489;-64
2022/01/09 07:47:05;;;;;;;21.63;14.43;;;0.00;94.30;;;;;;6276302;28;20494;-64
2022/01/09 07:50:11;;;;;;;23.53;13.63;;;-0.20;94.70;;;;;;6275623;28;20470;-63
2022/01/09 07:53:15;;;;;;;15.27;12.47;;;-0.30;95.10;;;;;;6275543;28;20481;-63
2022/01/09 07:56:18;;;;;;;23.90;13.53;;;-0.20;95.10;;;;;;6275188;28;20468;-64
2022/01/09 07:59:23;;;;;;;16.30;14.10;;;-0.10;94.90;;;;;;6275545;28;20481;-64
2022/01/09 08:02:26;;;;;;;16.83;13.03;;;-0.10;95.00;;;;;;6274829;28;20996;-64
2022/01/09 08:05:29;;;;;;;16.93;13.37;;;0.00;94.80;;;;;;6275280;28;20474;-64
2022/01/09 08:08:32;;;;;;;17.70;13.20;;;0.00;94.90;;;;;;6275049;28;20814;-63
2022/01/09 08:11:36;;;;;;;14.27;11.83;;;0.10;95.00;;;;;;6274914;28;20477;-61
2022/01/09 08:14:40;;;;;;;23.23;14.60;;;0.00;94.90;;;;;;6275239;28;20479;-62
2022/01/09 08:17:45;;;;;;;18.67;13.67;;;0.10;95.20;;;;;;6274906;28;20973;-61
2022/01/09 08:20:48;;;;;;;16.37;14.13;;;0.20;95.30;;;;;;6274957;28;20950;-61
2022/01/09 08:23:52;;;;;;;17.63;13.83;;;0.30;94.80;;;;;;6273802;28;20813;-61
2022/01/09 08:26:55;;;;;;;17.80;13.90;;;0.40;94.90;;;;;;6274733;28;20469;-61
2022/01/09 08:29:59;;;;;;;16.33;14.50;;;0.50;94.90;;;;;;6249729;28;20994;-61
2022/01/09 08:33:02;;;;;;;16.30;12.73;;;0.60;94.40;;;;;;6270693;28;20470;-62
2022/01/09 08:36:06;;;;;;;19.70;13.77;;;0.70;94.40;;;;;;6273921;28;20474;-61
2022/01/09 08:39:10;;;;;;;15.57;13.97;;;0.80;94.10;;;;;;6274265;28;20954;-63
2022/01/09 08:42:13;;;;;;;13.57;12.23;;;1.00;93.80;;;;;;6273769;28;20477;-61
2022/01/09 08:45:19;;;;;;;14.03;12.53;;;1.10;93.70;;;;;;6248999;28;20475;-61
2022/01/09 08:48:22;;;;;;;16.20;12.87;;;1.30;93.50;;;;;;6248313;28;20481;-61
2022/01/09 08:51:26;;;;;;;19.40;14.77;;;1.50;93.30;;;;;;6249025;28;20507;-62
2022/01/09 08:54:30;;;;;;;16.90;14.30;;;1.70;92.60;;;;;;6248949;28;20471;-61
2022/01/09 08:57:33;;;;;;;21.57;16.53;;;2.00;92.00;;;;;;6246401;28;20478;-61
2022/01/09 09:00:38;;;;;;;26.77;16.03;;;2.30;91.70;;;;;;6240480;28;20817;-61
2022/01/09 09:03:41;;;;;;;21.43;13.93;;;2.40;91.20;;;;;;6249399;28;20568;-63
2022/01/09 09:06:45;;;;;;;25.23;13.97;;;2.60;90.80;;;;;;6249662;28;20481;-61
2022/01/09 09:09:48;;;;;;;19.03;14.10;;;2.80;90.30;;;;;;6249542;28;20800;-62
2022/01/09 09:12:51;;;;;;;21.17;14.77;;;3.00;90.10;;;;;;6249862;28;20479;-61
2022/01/09 09:15:56;;;;;;;12.70;11.37;;;3.20;89.30;;;;;;6249743;28;20501;-62
2022/01/09 09:18:59;;;;;;;24.73;14.43;;;3.40;89.00;;;;;;6249817;28;20881;-61
2022/01/09 09:22:02;;;;;;;19.80;13.80;;;3.60;88.20;;;;;;6249592;28;20478;-61
2022/01/09 09:25:07;;;;;;;19.47;14.43;;;3.70;87.40;;;;;;6249353;28;20475;-62
2022/01/09 09:28:10;;;;;;;16.07;11.90;;;4.00;86.80;;;;;;6249888;28;20869;-61
2022/01/09 09:31:14;;;;;;;13.97;11.53;;;4.20;85.80;;;;;;6249536;28;20482;-62
2022/01/09 09:34:17;;;;;;;12.73;11.53;;;4.30;85.00;;;;;;6249359;28;20451;-62
2022/01/09 09:37:21;;;;;;;15.07;12.30;;;4.50;83.70;;;;;;6249760;28;20451;-61
2022/01/09 09:40:25;;;;;;;18.37;14.03;;;4.60;82.30;;;;;;6249243;28;20482;-62
2022/01/09 09:43:28;;;;;;;16.03;12.57;;;4.90;82.60;;;;;;6251136;28;20462;-62
2022/01/09 09:46:34;;;;;;;13.57;12.27;;;5.10;82.00;;;;;;6254199;28;20470;-61
2022/01/09 09:49:37;;;;;;;16.20;11.27;;;5.30;81.30;;;;;;6253494;28;20978;-62
2022/01/09 09:52:42;;;;;;;19.13;12.50;;;5.50;81.30;;;;;;6254050;28;20525;-61
2022/01/09 09:55:48;;;;;;;18.03;15.00;;;5.80;78.60;;;;;;6252946;28;20512;-61
2022/01/09 09:58:51;;;;;;;16.17;14.40;;;5.80;77.70;;;;;;6253689;28;20467;-61
2022/01/09 10:01:56;;;;;;;18.27;12.80;;;5.80;77.60;;;;;;6248992;28;20498;-61
2022/01/09 10:05:01;;;;;;;15.13;12.83;;;6.00;77.20;;;;;;6253228;28;20532;-62
2022/01/09 10:08:09;;;;;;;15.43;12.70;;;6.30;75.80;;;;;;6253283;28;20471;-63
2022/01/09 10:11:14;;;;;;;17.80;13.20;;;6.40;74.70;;;;;;6253357;28;20474;-63
2022/01/09 10:14:21;;;;;;;15.80;13.17;;;6.50;73.80;;;;;;6253965;28;20470;-62
2022/01/09 10:17:27;;;;;;;13.57;11.80;;;6.70;71.60;;;;;;6253806;28;20463;-62
2022/01/09 10:20:30;;;;;;;14.97;11.97;;;6.80;71.90;;;;;;6253184;28;20492;-62
2022/01/09 10:23:33;;;;;;;17.47;12.90;;;6.80;71.40;;;;;;6253964;28;20471;-63
2022/01/09 10:26:38;;;;;;;14.70;12.67;;;7.00;71.00;;;;;;6253778;28;20471;-63
2022/01/09 10:29:50;;;;;;;13.70;12.10;;;7.20;70.30;;;;;;6254101;28;20489;-62
2022/01/09 10:32:58;;;;;;;20.50;12.93;;;7.20;69.50;;;;;;6253476;28;20471;-63
2022/01/09 10:36:01;;;;;;;14.67;13.20;;;7.10;69.80;;;;;;6253549;28;20475;-63
2022/01/09 10:39:06;;;;;;;17.37;12.87;;;6.90;70.10;;;;;;6252425;28;20486;-62
2022/01/09 10:42:13;;;;;;;21.97;15.07;;;6.80;70.90;;;;;;6252783;28;20471;-63
2022/01/09 10:45:19;;;;;;;21.50;16.77;;;6.50;71.60;;;;;;6252531;28;20475;-63
2022/01/09 10:48:26;;;;;;;15.50;13.87;;;6.40;71.90;;;;;;6252903;28;20951;-63
2022/01/09 10:51:29;;;;;;;16.13;13.07;;;6.30;73.00;;;;;;6252539;28;20502;-65
2022/01/09 10:54:32;;;;;;;19.97;15.53;;;6.50;72.10;;;;;;6252043;28;20486;-63
2022/01/09 10:57:38;;;;;;;16.47;14.47;;;6.80;71.30;;;;;;6252569;28;20807;-63
2022/01/09 11:00:41;;;;;;;16.17;14.40;;;6.80;70.80;;;;;;6252064;28;20479;-63
2022/01/09 11:03:47;;;;;;;20.23;15.53;;;6.60;71.30;;;;;;6251865;28;20494;-63
2022/01/09 11:06:51;;;;;;;19.87;15.00;;;6.80;71.00;;;;;;6252282;28;20482;-64
2022/01/09 11:09:55;;;;;;;17.27;15.13;;;6.70;72.00;;;;;;6242147;28;20483;-64
2022/01/09 11:13:00;;;;;;;19.97;14.40;;;6.60;71.20;;;;;;6252071;28;20479;-63
2022/01/09 11:19:26;;;;;;;16.40;14.70;;;6.70;72.30;;;;;;6250339;28;20794;-63
2022/01/09 11:22:30;;;;;;;17.50;14.43;;;6.40;72.00;;;;;;6251148;28;20467;-64
2022/01/09 11:25:39;;;;;;;21.80;14.70;;;6.30;71.90;;;;;;6251274;28;20918;-63
2022/01/09 11:28:44;;;;;;;19.47;15.10;;;6.60;72.80;;;;;;6251482;28;20467;-63
2022/01/09 11:31:55;;;;;;;20.33;16.33;;;6.90;72.00;;;;;;6250576;28;20459;-64
2022/01/09 11:35:08;;;;;;;15.20;13.50;;;7.20;70.30;;;;;;6251220;28;20833;-63
2022/01/09 11:38:22;;;;;;;17.03;15.30;;;7.10;69.70;;;;;;6250736;28;20478;-63
2022/01/09 11:41:27;;;;;;;18.70;13.83;;;6.90;69.80;;;;;;6250124;28;20478;-62
2022/01/09 11:44:32;;;;;;;19.27;16.00;;;6.70;70.60;;;;;;6251873;28;20494;-62
2022/01/09 11:47:50;;;;;;;26.77;16.30;;;6.30;71.20;;;;;;6251842;28;20482;-63
2022/01/09 11:51:17;;;;;;;20.83;16.00;;;5.90;73.50;;;;;;6251343;28;20822;-62
2022/01/09 11:54:20;;;;;;;19.97;15.00;;;5.60;74.50;;;;;;6252473;28;20475;-62
2022/01/09 11:57:41;;;;;;;20.73;15.70;;;5.30;76.10;;;;;;6252107;28;20470;-62
2022/01/09 12:00:44;;;;;;;20.97;15.77;;;5.30;76.00;;;;;;6248203;28;20873;-62
2022/01/09 12:03:47;;;;;;;19.80;15.67;;;5.20;76.10;;;;;;6250344;28;20565;-62
2022/01/09 12:06:56;;;;;;;19.13;14.07;;;5.10;77.10;;;;;;6249714;28;20471;-63
2022/01/09 12:10:00;;;;;;;16.93;13.20;;;5.10;77.60;;;;;;6252997;28;20562;-63
2022/01/09 12:13:05;;;;;;;18.70;13.93;;;5.10;77.10;;;;;;6243083;28;20490;-63
2022/01/09 12:16:09;;;;;;;15.40;13.57;;;5.10;77.30;;;;;;6252256;28;20475;-62
2022/01/09 12:19:55;;;;;;;17.47;13.90;;;5.00;77.40;;;;;;6252782;28;20479;-62
2022/01/09 12:23:04;;;;;;;17.30;13.23;;;5.00;78.00;;;;;;6251360;28;20474;-66
2022/01/09 12:26:27;;;;;;;13.77;12.30;;;5.00;78.00;;;;;;6251551;28;20474;-63
2022/01/09 12:29:50;;;;;;;21.23;16.63;;;5.20;77.70;;;;;;6249168;28;20486;-63
2022/01/09 12:32:54;;;;;;;15.90;12.30;;;5.70;76.90;;;;;;6246345;28;20596;-64
2022/01/09 12:35:59;;;;;;;19.43;13.20;;;6.20;75.80;;;;;;6250753;28;20552;-64
2022/01/09 12:39:06;;;;;;;17.07;13.03;;;6.30;73.70;;;;;;6250739;28;20550;-63
2022/01/09 12:42:09;;;;;;;17.90;13.50;;;6.20;74.00;;;;;;6250365;28;20790;-63
2022/01/09 12:45:13;;;;;;;21.07;13.80;;;6.30;73.80;;;;;;6250200;28;20466;-63
2022/01/09 12:48:21;;;;;;;14.63;12.83;;;6.80;73.30;;;;;;6250414;28;20467;-63
2022/01/09 12:51:27;;;;;;;15.80;11.90;;;9.50;70.40;;;;;;6251140;28;20503;-63
2022/01/09 12:54:32;;;;;;;14.57;12.17;;;12.10;58.30;;;;;;6250370;28;20490;-62
2022/01/09 12:57:50;;;;;;;14.03;12.50;;;13.00;53.20;;;;;;6249058;28;20478;-62
2022/01/09 13:00:53;;;;;;;13.13;11.77;;;13.60;49.70;;;;;;6249374;28;20483;-63
2022/01/09 13:03:58;;;;;;;19.67;13.37;;;12.90;48.20;;;;;;6272613;28;20482;-62
2022/01/09 13:07:02;;;;;;;20.20;16.87;;;11.60;49.30;;;;;;6273964;28;20477;-64
2022/01/09 13:10:15;;;;;;;28.43;23.90;;;10.40;51.90;;;;;;6255694;28;20826;-63
2022/01/09 13:13:24;;;;;;;26.07;21.87;;;9.40;54.90;;;;;;6244582;28;20467;-63
2022/01/09 13:16:30;;;;;;;23.70;14.13;;;8.40;57.50;;;;;;6249730;28;20428;-64
2022/01/09 13:19:34;;;;;;;22.73;18.40;;;7.70;59.20;;;;;;6254483;28;20482;-64
2022/01/09 13:22:45;;;;;;;19.23;15.30;;;7.40;60.80;;;;;;6253548;28;20491;-66
2022/01/09 13:25:50;;;;;;;21.33;13.20;;;7.30;62.00;;;;;;6254847;28;20471;-64
2022/01/09 13:28:54;;;;;;;16.10;13.87;;;7.20;62.10;;;;;;6253698;28;20847;-64
2022/01/09 13:32:00;;;;;;;20.23;14.97;;;6.90;63.20;;;;;;6253906;28;20490;-63
2022/01/09 13:35:04;;;;;;;13.63;12.27;;;6.30;65.00;;;;;;6253453;28;20955;-63
2022/01/09 13:38:07;;;;;;;14.50;12.20;;;5.80;67.10;;;;;;6253290;28;20826;-63
2022/01/09 13:41:12;;;;;;;18.73;13.00;;;5.40;68.90;;;;;;6253214;28;20487;-62
2022/01/09 13:44:16;;;;;;;19.73;14.00;;;5.10;70.70;;;;;;6253676;28;20481;-64
2022/01/09 13:47:19;;;;;;;21.53;14.40;;;5.00;72.30;;;;;;6252526;28;20479;-64
2022/01/09 13:50:24;;;;;;;18.90;12.60;;;4.80;74.60;;;;;;6253228;28;20478;-64
2022/01/09 13:53:27;;;;;;;19.57;13.90;;;4.70;74.20;;;;;;6252339;28;20990;-63
2022/01/09 13:56:32;;;;;;;18.13;14.13;;;4.80;74.90;;;;;;6253271;28;20481;-67
2022/01/09 13:59:41;;;;;;;19.43;15.27;;;4.80;75.10;;;;;;6253738;28;20475;-66
2022/01/09 14:02:45;;;;;;;18.93;12.10;;;4.80;75.20;;;;;;6266000;28;20482;-64
2022/01/09 14:06:20;;;;;;;14.30;12.40;;;4.90;75.10;;;;;;6277777;28;20993;-64
2022/01/09 14:09:26;;;;;;;17.43;13.77;;;4.90;75.50;;;;;;6265308;28;20475;-64
2022/01/09 14:12:31;;;;;;;15.60;12.37;;;4.90;75.30;;;;;;6252601;28;20537;-63
2022/01/09 14:15:34;;;;;;;16.23;13.27;;;4.90;75.60;;;;;;6254630;28;20970;-64
2022/01/09 14:18:38;;;;;;;19.93;12.73;;;4.90;75.80;;;;;;6253523;28;20467;-63
2022/01/09 14:21:52;;;;;;;17.40;14.30;;;4.80;76.60;;;;;;6248856;28;20596;-63
2022/01/09 14:25:01;;;;;;;14.80;12.67;;;4.80;76.50;;;;;;6252220;28;20471;-63
2022/01/09 14:28:07;;;;;;;22.17;15.07;;;4.80;76.40;;;;;;6254817;28;20997;-65
2022/01/09 14:31:15;;;;;;;20.73;13.67;;;4.80;77.20;;;;;;6253642;28;20455;-65
2022/01/09 14:34:18;;;;;;;15.40;13.50;;;4.80;77.40;;;;;;6253506;28;20471;-64
2022/01/09 14:37:21;;;;;;;17.97;15.13;;;4.80;78.10;;;;;;6253038;28;20478;-65
2022/01/09 14:40:24;;;;;;;20.67;13.67;;;4.70;78.50;;;;;;6253717;28;20470;-63
2022/01/09 14:43:31;;;;;;;22.83;15.00;;;4.50;79.80;;;;;;6254026;28;20738;-63
2022/01/09 14:46:35;;;;;;;20.27;13.97;;;4.40;79.80;;;;;;6253955;28;21928;-63
2022/01/09 14:49:38;;;;;;;18.40;13.67;;;4.40;79.50;;;;;;6254443;28;20463;-63
2022/01/09 14:52:42;;;;;;;15.93;13.60;;;4.30;79.00;;;;;;6252121;28;20493;-63
2022/01/09 14:55:46;;;;;;;18.27;13.40;;;4.20;79.30;;;;;;6252628;28;20478;-63
2022/01/09 14:58:50;;;;;;;16.80;13.90;;;4.10;79.80;;;;;;6253082;28;20974;-64
2022/01/09 15:01:53;;;;;;;17.50;14.30;;;4.10;80.10;;;;;;6258178;28;20474;-63
2022/01/09 15:04:56;;;;;;;17.10;14.23;;;4.10;80.10;;;;;;6276414;28;20821;-63
2022/01/09 15:08:01;;;;;;;17.27;13.77;;;4.10;80.10;;;;;;6275969;28;20462;-63
2022/01/09 15:11:04;;;;;;;14.70;12.90;;;4.00;80.70;;;;;;6251805;28;20828;-63
2022/01/09 15:14:09;;;;;;;21.13;14.37;;;4.00;81.00;;;;;;6251753;28;20479;-63
2022/01/09 15:17:12;;;;;;;14.53;12.30;;;4.00;81.40;;;;;;6252673;28;20558;-64
2022/01/09 15:20:17;;;;;;;15.50;13.80;;;3.90;81.30;;;;;;6251546;28;20529;-63
2022/01/09 15:23:20;;;;;;;23.03;15.77;;;3.90;81.70;;;;;;6247108;28;21053;-64
2022/01/09 15:26:23;;;;;;;16.63;14.93;;;3.80;82.10;;;;;;6251125;28;20474;-64
2022/01/09 15:29:27;;;;;;;19.03;15.07;;;3.70;82.60;;;;;;6251446;28;20475;-63
2022/01/09 15:32:31;;;;;;;18.33;14.07;;;3.70;83.10;;;;;;6250905;28;20478;-62
2022/01/09 15:35:35;;;;;;;17.03;14.57;;;3.60;83.50;;;;;;6251876;28;20474;-63
2022/01/09 15:38:38;;;;;;;20.53;15.60;;;3.60;83.70;;;;;;6263366;28;20990;-63
2022/01/09 15:41:41;;;;;;;19.60;16.23;;;3.60;83.70;;;;;;6253027;28;20801;-62
2022/01/09 15:44:45;;;;;;;21.20;15.77;;;3.50;83.80;;;;;;6259161;28;20466;-63
2022/01/09 15:47:48;;;;;;;17.73;14.90;;;3.50;84.30;;;;;;6258256;28;20822;-63